Terminal Aerodrome Forecast
Issued by NWS

Home | Current Version | Previous Version | Text Only | Print | Product List | Glossary On
Versions: 1 2 3 4 5 6 7 8 9 10 11 12 13 14 15 16
774
FTUS46 KMTR 222332
TAFSTS
TAF
KSTS 222332Z 2300/2324 16011KT P6SM SKC
     FM230600 19004KT P6SM SKC
     FM231000 VRB03KT 5SM BR BKN006
     FM231700 18004KT P6SM SKC
     FM232100 17010KT P6SM SKC=

USA.gov is the U.S. government's official web portal to all federal, state and local government web resources and services.